sensor_id;sensor_type;location;lat;lon;timestamp;pressure;altitude;pressure_sealevel;temperature;humidity
55317;BME280;41178;48.956;8.130;2024-01-27T00:02:56;101387.50;;;9.36;40.33
55317;BME280;41178;48.956;8.130;2024-01-27T00:07:58;101519.09;;;8.44;41.14
55317;BME280;41178;48.956;8.130;2024-01-27T00:12:59;101579.91;;;8.94;39.97
55317;BME280;41178;48.956;8.130;2024-01-27T00:18:01;101530.16;;;8.39;41.07
55317;BME280;41178;48.956;8.130;2024-01-27T00:23:03;101402.28;;;8.05;41.88
55317;BME280;41178;48.956;8.130;2024-01-27T00:28:05;101609.72;;;6.97;42.46
55317;BME280;41178;48.956;8.130;2024-01-27T00:33:07;101369.97;;;8.93;40.48
55317;BME280;41178;48.956;8.130;2024-01-27T00:38:09;101444.31;;;10.37;38.42
55317;BME280;41178;48.956;8.130;2024-01-27T00:43:11;101563.41;;;9.62;38.96
55317;BME280;41178;48.956;8.130;2024-01-27T00:48:13;101583.88;;;8.35;40.53
55317;BME280;41178;48.956;8.130;2024-01-27T00:53:15;101566.53;;;8.73;40.02
55317;BME280;41178;48.956;8.130;2024-01-27T00:58:16;101528.66;;;9.00;39.50
55317;BME280;41178;48.956;8.130;2024-01-27T01:03:18;101549.44;;;8.96;40.03
55317;BME280;41178;48.956;8.130;2024-01-27T01:08:20;101613.69;;;8.72;39.91
55317;BME280;41178;48.956;8.130;2024-01-27T01:13:22;101492.84;;;8.28;41.09
55317;BME280;41178;48.956;8.130;2024-01-27T01:18:23;101666.72;;;6.94;41.95
55317;BME280;41178;48.956;8.130;2024-01-27T01:23:25;101435.41;;;8.45;40.67
55317;BME280;41178;48.956;8.130;2024-01-27T01:28:27;101453.16;;;9.29;39.74
55317;BME280;41178;48.956;8.130;2024-01-27T01:33:30;101633.53;;;8.03;41.44
55317;BME280;41178;48.956;8.130;2024-01-27T01:38:31;101595.69;;;7.76;41.96
55317;BME280;41178;48.956;8.130;2024-01-27T01:43:33;101642.84;;;6.44;43.36
55317;BME280;41178;48.956;8.130;2024-01-27T01:48:35;101478.34;;;8.42;41.21
55317;BME280;41178;48.956;8.130;2024-01-27T01:53:37;101571.31;;;8.14;41.50
55317;BME280;41178;48.956;8.130;2024-01-27T01:58:39;101564.69;;;7.97;42.00
55317;BME280;41178;48.956;8.130;2024-01-27T02:03:51;101589.16;;;8.14;41.20
55317;BME280;41178;48.956;8.130;2024-01-27T02:08:53;101475.69;;;9.36;40.05
55317;BME280;41178;48.956;8.130;2024-01-27T02:13:54;101477.69;;;9.44;39.34
55317;BME280;41178;48.956;8.130;2024-01-27T02:18:56;101598.44;;;8.74;40.12
55317;BME280;41178;48.956;8.130;2024-01-27T02:23:58;101575.59;;;7.94;41.22
55317;BME280;41178;48.956;8.130;2024-01-27T02:29:00;101546.22;;;8.17;40.88
55317;BME280;41178;48.956;8.130;2024-01-27T02:34:02;101499.09;;;9.22;39.31
55317;BME280;41178;48.956;8.130;2024-01-27T02:39:04;101527.25;;;8.63;40.28
55317;BME280;41178;48.956;8.130;2024-01-27T02:44:05;101508.50;;;8.21;41.14
55317;BME280;41178;48.956;8.130;2024-01-27T02:49:07;101668.88;;;7.71;40.89
55317;BME280;41178;48.956;8.130;2024-01-27T02:54:09;101602.91;;;8.41;40.09
55317;BME280;41178;48.956;8.130;2024-01-27T02:59:11;101680.66;;;6.98;41.84
55317;BME280;41178;48.956;8.130;2024-01-27T03:04:13;101486.28;;;8.00;41.11
55317;BME280;41178;48.956;8.130;2024-01-27T03:09:15;101585.31;;;7.95;40.62
55317;BME280;41178;48.956;8.130;2024-01-27T03:14:17;101636.84;;;7.49;41.36
55317;BME280;41178;48.956;8.130;2024-01-27T03:19:19;101453.44;;;7.99;41.42
55317;BME280;41178;48.956;8.130;2024-01-27T03:24:21;101587.84;;;7.97;40.79
55317;BME280;41178;48.956;8.130;2024-01-27T03:29:22;101526.44;;;8.31;40.19
55317;BME280;41178;48.956;8.130;2024-01-27T03:34:24;101620.78;;;7.73;41.07
55317;BME280;41178;48.956;8.130;2024-01-27T03:39:27;101503.75;;;8.57;39.94
55317;BME280;41178;48.956;8.130;2024-01-27T03:44:28;101605.88;;;8.04;40.74
55317;BME280;41178;48.956;8.130;2024-01-27T03:49:30;101699.06;;;7.01;41.91
55317;BME280;41178;48.956;8.130;2024-01-27T03:54:32;101485.25;;;7.23;42.27
55317;BME280;41178;48.956;8.130;2024-01-27T03:59:34;101551.72;;;7.92;40.63
55317;BME280;41178;48.956;8.130;2024-01-27T04:04:35;101512.97;;;7.21;41.80
55317;BME280;41178;48.956;8.130;2024-01-27T04:09:37;101491.66;;;5.79;44.13
55317;BME280;41178;48.956;8.130;2024-01-27T04:14:39;101508.38;;;7.11;42.40
55317;BME280;41178;48.956;8.130;2024-01-27T04:19:41;101454.56;;;6.25;43.47
55317;BME280;41178;48.956;8.130;2024-01-27T04:24:43;101579.19;;;6.06;43.23
55317;BME280;41178;48.956;8.130;2024-01-27T04:29:45;101533.38;;;6.27;43.99
55317;BME280;41178;48.956;8.130;2024-01-27T04:34:47;101639.81;;;5.62;44.23
55317;BME280;41178;48.956;8.130;2024-01-27T04:39:49;101423.81;;;6.92;42.94
55317;BME280;41178;48.956;8.130;2024-01-27T04:44:50;101536.44;;;6.33;45.00
55317;BME280;41178;48.956;8.130;2024-01-27T04:49:53;101483.66;;;6.87;43.47
55317;BME280;41178;48.956;8.130;2024-01-27T04:54:55;101416.25;;;6.63;44.31
55317;BME280;41178;48.956;8.130;2024-01-27T04:59:56;101416.19;;;6.99;43.43
55317;BME280;41178;48.956;8.130;2024-01-27T05:04:58;101474.50;;;6.67;43.88
55317;BME280;41178;48.956;8.130;2024-01-27T05:10:00;101493.50;;;5.65;45.48
55317;BME280;41178;48.956;8.130;2024-01-27T05:15:02;101478.97;;;7.35;43.05
55317;BME280;41178;48.956;8.130;2024-01-27T05:20:05;101447.66;;;7.94;41.84
55317;BME280;41178;48.956;8.130;2024-01-27T05:25:07;101512.22;;;7.86;41.61
55317;BME280;41178;48.956;8.130;2024-01-27T05:30:09;101530.78;;;7.31;42.73
55317;BME280;41178;48.956;8.130;2024-01-27T05:35:11;101542.66;;;7.61;42.31
55317;BME280;41178;48.956;8.130;2024-01-27T05:40:13;101491.09;;;8.06;41.38
55317;BME280;41178;48.956;8.130;2024-01-27T05:45:16;101622.69;;;7.48;41.74
55317;BME280;41178;48.956;8.130;2024-01-27T05:50:18;101544.31;;;7.17;43.54
55317;BME280;41178;48.956;8.130;2024-01-27T05:55:19;101488.69;;;8.35;40.70
55317;BME280;41178;48.956;8.130;2024-01-27T06:00:21;101693.75;;;6.14;43.72
55317;BME280;41178;48.956;8.130;2024-01-27T06:05:23;101501.72;;;7.17;43.00
55317;BME280;41178;48.956;8.130;2024-01-27T06:10:25;101717.69;;;5.88;43.63
55317;BME280;41178;48.956;8.130;2024-01-27T06:15:26;101499.50;;;5.80;45.37
55317;BME280;41178;48.956;8.130;2024-01-27T06:20:28;101559.38;;;5.73;45.20
55317;BME280;41178;48.956;8.130;2024-01-27T06:25:30;101475.22;;;7.15;42.14
55317;BME280;41178;48.956;8.130;2024-01-27T06:30:31;101536.09;;;7.20;41.49
55317;BME280;41178;48.956;8.130;2024-01-27T06:35:33;101650.00;;;5.81;43.13
55317;BME280;41178;48.956;8.130;2024-01-27T06:40:35;101557.78;;;6.07;42.67
55317;BME280;41178;48.956;8.130;2024-01-27T06:45:37;101525.69;;;6.35;42.83
55317;BME280;41178;48.956;8.130;2024-01-27T06:50:38;101557.59;;;6.94;42.07
55317;BME280;41178;48.956;8.130;2024-01-27T06:55:40;101681.13;;;5.13;45.15
55317;BME280;41178;48.956;8.130;2024-01-27T07:00:44;101554.38;;;3.54;48.43
55317;BME280;41178;48.956;8.130;2024-01-27T07:05:46;101460.22;;;3.35;49.59
55317;BME280;41178;48.956;8.130;2024-01-27T07:10:48;101398.66;;;3.60;49.00
55317;BME280;41178;48.956;8.130;2024-01-27T07:15:50;101519.97;;;5.41;44.80
55317;BME280;41178;48.956;8.130;2024-01-27T07:20:52;101448.53;;;5.75;44.52
55317;BME280;41178;48.956;8.130;2024-01-27T07:25:54;101436.25;;;5.85;43.75
55317;BME280;41178;48.956;8.130;2024-01-27T07:30:55;101548.66;;;5.36;44.23
55317;BME280;41178;48.956;8.130;2024-01-27T07:35:57;101560.41;;;5.83;43.19
55317;BME280;41178;48.956;8.130;2024-01-27T07:40:59;101661.38;;;4.77;44.33
55317;BME280;41178;48.956;8.130;2024-01-27T07:46:01;101454.44;;;6.62;42.84
55317;BME280;41178;48.956;8.130;2024-01-27T07:51:02;101511.19;;;7.21;41.63
55317;BME280;41178;48.956;8.130;2024-01-27T07:56:04;101603.84;;;5.57;44.54
55317;BME280;41178;48.956;8.130;2024-01-27T08:01:09;101548.94;;;7.49;41.83
55317;BME280;41178;48.956;8.130;2024-01-27T08:06:15;101567.31;;;6.47;43.14
55317;BME280;41178;48.956;8.130;2024-01-27T08:11:18;101509.88;;;8.16;40.85
55317;BME280;41178;48.956;8.130;2024-01-27T08:16:20;101713.13;;;6.16;43.21
55317;BME280;41178;48.956;8.130;2024-01-27T08:21:22;101503.19;;;7.55;42.33
55317;BME280;41178;48.956;8.130;2024-01-27T08:26:24;101503.53;;;7.84;41.91
55317;BME280;41178;48.956;8.130;2024-01-27T08:31:26;101511.94;;;8.44;41.33
55317;BME280;41178;48.956;8.130;2024-01-27T08:36:28;101596.44;;;7.89;42.01
55317;BME280;41178;48.956;8.130;2024-01-27T08:41:29;101523.22;;;8.04;42.37
55317;BME280;41178;48.956;8.130;2024-01-27T08:46:31;101546.44;;;8.90;41.41
55317;BME280;41178;48.956;8.130;2024-01-27T08:51:33;101602.19;;;8.28;42.40
55317;BME280;41178;48.956;8.130;2024-01-27T08:56:39;101658.78;;;7.64;42.95
55317;BME280;41178;48.956;8.130;2024-01-27T09:01:42;101591.22;;;8.10;42.71
55317;BME280;41178;48.956;8.130;2024-01-27T09:06:43;101537.38;;;8.16;42.79
55317;BME280;41178;48.956;8.130;2024-01-27T09:11:45;101676.38;;;7.66;43.09
55317;BME280;41178;48.956;8.130;2024-01-27T09:16:48;101582.16;;;7.56;43.70
55317;BME280;41178;48.956;8.130;2024-01-27T09:21:49;101521.38;;;9.33;41.50
55317;BME280;41178;48.956;8.130;2024-01-27T09:26:51;101730.66;;;6.32;44.69
55317;BME280;41178;48.956;8.130;2024-01-27T09:31:53;101732.34;;;6.83;43.65
55317;BME280;41178;48.956;8.130;2024-01-27T09:36:55;101463.75;;;8.57;42.19
55317;BME280;41178;48.956;8.130;2024-01-27T09:42:00;101630.09;;;9.63;40.73
55317;BME280;41178;48.956;8.130;2024-01-27T09:47:06;101681.75;;;8.34;43.21
55317;BME280;41178;48.956;8.130;2024-01-27T09:52:08;101608.75;;;9.21;42.42
55317;BME280;41178;48.956;8.130;2024-01-27T09:57:11;101619.72;;;8.85;43.22
55317;BME280;41178;48.956;8.130;2024-01-27T10:02:15;101539.19;;;9.53;42.31
55317;BME280;41178;48.956;8.130;2024-01-27T10:07:19;101717.97;;;8.59;41.94
55317;BME280;41178;48.956;8.130;2024-01-27T10:12:22;101579.22;;;6.17;46.20
55317;BME280;41178;48.956;8.130;2024-01-27T10:17:27;101729.56;;;6.34;45.46
55317;BME280;41178;48.956;8.130;2024-01-27T10:22:41;101614.31;;;6.95;45.14
55317;BME280;41178;48.956;8.130;2024-01-27T10:27:43;101531.44;;;6.88;46.04
55317;BME280;41178;48.956;8.130;2024-01-27T10:32:56;101672.72;;;5.98;47.07
55317;BME280;41178;48.956;8.130;2024-01-27T10:37:59;101436.31;;;8.55;43.84
55317;BME280;41178;48.956;8.130;2024-01-27T10:43:05;101555.41;;;6.64;46.15
55317;BME280;41178;48.956;8.130;2024-01-27T10:48:08;101598.34;;;8.64;43.56
55317;BME280;41178;48.956;8.130;2024-01-27T10:53:22;101580.34;;;9.82;41.37
55317;BME280;41178;48.956;8.130;2024-01-27T10:58:26;101636.03;;;8.16;43.74
55317;BME280;41178;48.956;8.130;2024-01-27T11:06:22;101580.63;;;5.22;49.91
55317;BME280;41178;48.956;8.130;2024-01-27T11:11:24;101371.16;;;6.85;48.59
55317;BME280;41178;48.956;8.130;2024-01-27T11:16:26;101381.66;;;7.31;47.97
55317;BME280;41178;48.956;8.130;2024-01-27T11:21:29;101517.25;;;6.76;48.04
55317;BME280;41178;48.956;8.130;2024-01-27T11:26:31;101437.69;;;7.41;47.89
55317;BME280;41178;48.956;8.130;2024-01-27T11:31:35;101509.44;;;6.86;48.46
55317;BME280;41178;48.956;8.130;2024-01-27T11:36:36;101438.13;;;6.67;48.59
55317;BME280;41178;48.956;8.130;2024-01-27T11:41:38;101421.88;;;7.72;47.42
55317;BME280;41178;48.956;8.130;2024-01-27T11:46:42;101450.44;;;7.81;46.89
55317;BME280;41178;48.956;8.130;2024-01-27T11:51:43;101527.38;;;7.41;47.43
55317;BME280;41178;48.956;8.130;2024-01-27T11:56:46;101441.47;;;7.94;46.73
55317;BME280;41178;48.956;8.130;2024-01-27T12:01:47;101417.75;;;8.11;46.75
55317;BME280;41178;48.956;8.130;2024-01-27T12:06:49;101436.97;;;8.47;46.15
55317;BME280;41178;48.956;8.130;2024-01-27T12:11:51;101391.16;;;8.00;47.06
55317;BME280;41178;48.956;8.130;2024-01-27T12:16:53;101553.28;;;7.72;45.55
55317;BME280;41178;48.956;8.130;2024-01-27T12:21:55;101485.38;;;8.43;45.05
55317;BME280;41178;48.956;8.130;2024-01-27T12:26:56;101506.97;;;8.07;45.52
55317;BME280;41178;48.956;8.130;2024-01-27T12:31:58;101466.31;;;7.94;46.33
55317;BME280;41178;48.956;8.130;2024-01-27T12:37:02;101511.75;;;7.92;46.16
55317;BME280;41178;48.956;8.130;2024-01-27T12:42:04;101432.88;;;8.43;45.70
55317;BME280;41178;48.956;8.130;2024-01-27T12:47:06;101455.66;;;8.69;45.35
55317;BME280;41178;48.956;8.130;2024-01-27T12:52:08;101489.34;;;7.95;45.52
55317;BME280;41178;48.956;8.130;2024-01-27T12:57:09;101562.72;;;8.22;44.71
55317;BME280;41178;48.956;8.130;2024-01-27T13:02:11;101462.81;;;8.68;44.68
55317;BME280;41178;48.956;8.130;2024-01-27T13:07:13;101457.34;;;8.70;44.44
55317;BME280;41178;48.956;8.130;2024-01-27T13:12:15;101550.09;;;8.24;43.63
55317;BME280;41178;48.956;8.130;2024-01-27T13:17:17;101579.22;;;7.59;45.02
55317;BME280;41178;48.956;8.130;2024-01-27T13:22:18;101523.81;;;8.73;43.50
55317;BME280;41178;48.956;8.130;2024-01-27T13:27:22;101351.91;;;9.26;43.78
55317;BME280;41178;48.956;8.130;2024-01-27T13:32:23;101450.00;;;9.14;42.93
55317;BME280;41178;48.956;8.130;2024-01-27T13:37:25;101500.72;;;9.35;42.60
55317;BME280;41178;48.956;8.130;2024-01-27T13:42:27;101394.06;;;9.82;42.97
55317;BME280;41178;48.956;8.130;2024-01-27T13:47:29;101534.88;;;8.68;43.13
55317;BME280;41178;48.956;8.130;2024-01-27T13:52:31;101511.94;;;8.65;43.80
55317;BME280;41178;48.956;8.130;2024-01-27T13:57:33;101573.69;;;8.28;43.21
55317;BME280;41178;48.956;8.130;2024-01-27T14:02:34;101390.59;;;9.21;42.87
55317;BME280;41178;48.956;8.130;2024-01-27T14:07:39;101571.91;;;8.18;43.65
55317;BME280;41178;48.956;8.130;2024-01-27T14:12:41;101544.38;;;8.82;43.48
55317;BME280;41178;48.956;8.130;2024-01-27T14:17:43;101560.75;;;8.89;42.62
55317;BME280;41178;48.956;8.130;2024-01-27T14:22:44;101438.94;;;8.88;43.19
55317;BME280;41178;48.956;8.130;2024-01-27T14:27:46;101413.56;;;9.63;42.57
55317;BME280;41178;48.956;8.130;2024-01-27T14:32:51;101495.00;;;8.34;43.30
55317;BME280;41178;48.956;8.130;2024-01-27T14:37:53;101455.22;;;9.15;42.13
55317;BME280;41178;48.956;8.130;2024-01-27T14:42:55;101530.28;;;8.91;42.04
55317;BME280;41178;48.956;8.130;2024-01-27T14:47:57;101507.84;;;8.61;42.67
55317;BME280;41178;48.956;8.130;2024-01-27T14:53:04;101473.72;;;8.23;43.16
55317;BME280;41178;48.956;8.130;2024-01-27T14:58:06;101532.91;;;8.49;43.67
55317;BME280;41178;48.956;8.130;2024-01-27T15:03:08;101425.19;;;9.33;43.11
55317;BME280;41178;48.956;8.130;2024-01-27T15:08:11;101380.53;;;9.64;42.44
55317;BME280;41178;48.956;8.130;2024-01-27T15:13:13;101426.00;;;9.24;42.97
55317;BME280;41178;48.956;8.130;2024-01-27T15:18:15;101377.84;;;9.54;42.66
55317;BME280;41178;48.956;8.130;2024-01-27T15:23:20;101390.53;;;9.62;42.39
55317;BME280;41178;48.956;8.130;2024-01-27T15:28:26;101459.31;;;8.89;43.43
55317;BME280;41178;48.956;8.130;2024-01-27T15:33:30;101401.56;;;8.66;43.57
55317;BME280;41178;48.956;8.130;2024-01-27T15:38:32;101370.97;;;9.01;42.61
55317;BME280;41178;48.956;8.130;2024-01-27T15:43:34;101472.16;;;8.20;43.58
55317;BME280;41178;48.956;8.130;2024-01-27T15:48:36;101479.03;;;8.02;43.55
55317;BME280;41178;48.956;8.130;2024-01-27T15:53:38;101489.56;;;8.03;43.11
55317;BME280;41178;48.956;8.130;2024-01-27T15:58:40;101588.88;;;7.26;43.89
55317;BME280;41178;48.956;8.130;2024-01-27T16:03:42;101554.38;;;7.81;43.11
55317;BME280;41178;48.956;8.130;2024-01-27T16:08:43;101501.19;;;7.91;43.33
55317;BME280;41178;48.956;8.130;2024-01-27T16:13:45;101555.22;;;7.25;44.27
55317;BME280;41178;48.956;8.130;2024-01-27T16:18:47;101342.72;;;8.68;42.70
55317;BME280;41178;48.956;8.130;2024-01-27T16:23:49;101455.41;;;7.97;43.30
55317;BME280;41178;48.956;8.130;2024-01-27T16:28:50;101513.69;;;7.90;43.09
55317;BME280;41178;48.956;8.130;2024-01-27T16:33:52;101445.88;;;8.37;42.42
55317;BME280;41178;48.956;8.130;2024-01-27T16:38:54;101451.09;;;7.85;43.79
55317;BME280;41178;48.956;8.130;2024-01-27T16:43:55;101617.81;;;6.84;44.34
55317;BME280;41178;48.956;8.130;2024-01-27T16:48:57;101616.22;;;6.20;45.12
55317;BME280;41178;48.956;8.130;2024-01-27T16:53:59;101381.72;;;7.96;43.78
55317;BME280;41178;48.956;8.130;2024-01-27T16:59:01;101340.50;;;8.00;43.91
55317;BME280;41178;48.956;8.130;2024-01-27T17:04:05;101350.78;;;7.72;43.93
55317;BME280;41178;48.956;8.130;2024-01-27T17:09:08;101415.19;;;7.11;44.27
55317;BME280;41178;48.956;8.130;2024-01-27T17:14:13;101460.91;;;7.39;43.46
55317;BME280;41178;48.956;8.130;2024-01-27T17:19:14;101474.34;;;7.04;44.16
55317;BME280;41178;48.956;8.130;2024-01-27T17:24:16;101460.56;;;7.10;44.29
55317;BME280;41178;48.956;8.130;2024-01-27T17:29:18;101430.78;;;6.93;44.27
55317;BME280;41178;48.956;8.130;2024-01-27T17:34:20;101449.56;;;6.45;45.45
55317;BME280;41178;48.956;8.130;2024-01-27T17:39:22;101392.16;;;6.54;45.43
55317;BME280;41178;48.956;8.130;2024-01-27T17:44:24;101427.63;;;5.71;46.52
55317;BME280;41178;48.956;8.130;2024-01-27T17:49:26;101314.88;;;6.21;45.99
55317;BME280;41178;48.956;8.130;2024-01-27T17:54:28;101431.34;;;5.92;45.95
55317;BME280;41178;48.956;8.130;2024-01-27T17:59:38;101436.34;;;5.73;46.07
55317;BME280;41178;48.956;8.130;2024-01-27T18:04:40;101251.53;;;6.15;46.43
55317;BME280;41178;48.956;8.130;2024-01-27T18:09:42;101256.88;;;6.38;46.11
55317;BME280;41178;48.956;8.130;2024-01-27T18:14:44;101361.84;;;6.10;45.72
55317;BME280;41178;48.956;8.130;2024-01-27T18:19:45;101335.03;;;6.13;45.89
55317;BME280;41178;48.956;8.130;2024-01-27T18:24:49;101379.78;;;5.95;45.88
55317;BME280;41178;48.956;8.130;2024-01-27T18:29:52;101440.38;;;6.14;45.24
55317;BME280;41178;48.956;8.130;2024-01-27T18:34:54;101302.53;;;5.74;47.07
55317;BME280;41178;48.956;8.130;2024-01-27T18:39:56;101373.84;;;6.38;45.27
55317;BME280;41178;48.956;8.130;2024-01-27T18:45:01;101466.91;;;5.28;46.75
55317;BME280;41178;48.956;8.130;2024-01-27T18:50:04;101304.13;;;5.52;47.37
55317;BME280;41178;48.956;8.130;2024-01-27T18:55:08;101442.56;;;5.35;46.71
55317;BME280;41178;48.956;8.130;2024-01-27T19:00:10;101403.53;;;5.61;46.45
55317;BME280;41178;48.956;8.130;2024-01-27T19:05:12;101401.72;;;5.48;46.54
55317;BME280;41178;48.956;8.130;2024-01-27T19:10:17;101413.63;;;5.19;47.10
55317;BME280;41178;48.956;8.130;2024-01-27T19:15:18;101416.59;;;5.01;47.37
55317;BME280;41178;48.956;8.130;2024-01-27T19:20:20;101387.75;;;4.84;47.85
55317;BME280;41178;48.956;8.130;2024-01-27T19:25:22;101425.22;;;4.79;47.66
55317;BME280;41178;48.956;8.130;2024-01-27T19:30:24;101306.22;;;5.36;47.09
55317;BME280;41178;48.956;8.130;2024-01-27T19:35:26;101282.50;;;5.45;46.98
55317;BME280;41178;48.956;8.130;2024-01-27T19:40:28;101384.13;;;5.10;46.93
55317;BME280;41178;48.956;8.130;2024-01-27T19:45:29;101378.13;;;5.32;46.39
55317;BME280;41178;48.956;8.130;2024-01-27T19:50:31;101426.69;;;4.45;47.97
55317;BME280;41178;48.956;8.130;2024-01-27T19:55:33;101314.81;;;5.15;46.85
55317;BME280;41178;48.956;8.130;2024-01-27T20:00:35;101339.84;;;5.11;46.70
55317;BME280;41178;48.956;8.130;2024-01-27T20:05:37;101201.81;;;5.35;47.19
55317;BME280;41178;48.956;8.130;2024-01-27T20:10:38;101218.38;;;5.63;46.15
55317;BME280;41178;48.956;8.130;2024-01-27T20:15:40;101308.09;;;5.09;46.93
55317;BME280;41178;48.956;8.130;2024-01-27T20:20:42;101233.59;;;5.61;46.01
55317;BME280;41178;48.956;8.130;2024-01-27T20:25:43;101390.63;;;4.81;46.85
55317;BME280;41178;48.956;8.130;2024-01-27T20:30:45;101318.75;;;5.33;45.75
55317;BME280;41178;48.956;8.130;2024-01-27T20:35:47;101395.38;;;4.37;47.52
55317;BME280;41178;48.956;8.130;2024-01-27T20:40:49;101288.91;;;4.69;47.87
55317;BME280;41178;48.956;8.130;2024-01-27T20:45:51;101319.03;;;4.55;47.35
55317;BME280;41178;48.956;8.130;2024-01-27T20:50:53;101324.16;;;4.58;47.16
55317;BME280;41178;48.956;8.130;2024-01-27T20:55:55;101290.53;;;4.95;46.63
55317;BME280;41178;48.956;8.130;2024-01-27T21:00:57;101312.47;;;4.61;47.13
55317;BME280;41178;48.956;8.130;2024-01-27T21:05:59;101339.47;;;4.91;46.22
55317;BME280;41178;48.956;8.130;2024-01-27T21:11:00;101323.09;;;4.98;46.51
55317;BME280;41178;48.956;8.130;2024-01-27T21:16:05;101435.19;;;4.23;47.08
55317;BME280;41178;48.956;8.130;2024-01-27T21:21:07;101307.22;;;5.46;45.32
55317;BME280;41178;48.956;8.130;2024-01-27T21:26:08;101207.00;;;5.37;45.99
55317;BME280;41178;48.956;8.130;2024-01-27T21:31:10;101440.31;;;4.26;46.62
55317;BME280;41178;48.956;8.130;2024-01-27T21:36:12;101369.59;;;3.86;48.02
55317;BME280;41178;48.956;8.130;2024-01-27T21:41:13;101204.59;;;4.98;46.38
55317;BME280;41178;48.956;8.130;2024-01-27T21:46:15;101286.78;;;4.10;47.84
55317;BME280;41178;48.956;8.130;2024-01-27T21:51:17;101334.25;;;3.87;47.68
55317;BME280;41178;48.956;8.130;2024-01-27T21:56:18;101323.94;;;3.82;48.07
55317;BME280;41178;48.956;8.130;2024-01-27T22:01:20;101334.81;;;3.65;48.23
55317;BME280;41178;48.956;8.130;2024-01-27T22:06:22;101333.59;;;3.56;48.24
55317;BME280;41178;48.956;8.130;2024-01-27T22:11:24;101216.00;;;4.25;47.22
55317;BME280;41178;48.956;8.130;2024-01-27T22:16:25;101364.03;;;3.63;47.70
55317;BME280;41178;48.956;8.130;2024-01-27T22:21:28;101398.81;;;3.30;48.34
55317;BME280;41178;48.956;8.130;2024-01-27T22:26:29;101301.25;;;3.65;47.86
55317;BME280;41178;48.956;8.130;2024-01-27T22:31:31;101282.75;;;3.91;47.57
55317;BME280;41178;48.956;8.130;2024-01-27T22:36:33;101272.81;;;4.20;47.02
55317;BME280;41178;48.956;8.130;2024-01-27T22:41:34;101366.13;;;3.31;48.29
55317;BME280;41178;48.956;8.130;2024-01-27T22:46:37;101313.44;;;3.41;48.38
55317;BME280;41178;48.956;8.130;2024-01-27T22:51:40;101269.38;;;3.67;47.77
55317;BME280;41178;48.956;8.130;2024-01-27T22:56:43;101287.13;;;3.52;48.18
55317;BME280;41178;48.956;8.130;2024-01-27T23:01:45;101299.56;;;3.37;48.20
55317;BME280;41178;48.956;8.130;2024-01-27T23:06:47;101399.28;;;2.79;48.99
55317;BME280;41178;48.956;8.130;2024-01-27T23:11:49;101276.19;;;3.17;48.78
55317;BME280;41178;48.956;8.130;2024-01-27T23:16:51;101162.09;;;3.87;47.90
55317;BME280;41178;48.956;8.130;2024-01-27T23:21:53;101335.03;;;3.20;48.34
55317;BME280;41178;48.956;8.130;2024-01-27T23:26:54;101245.56;;;4.06;47.16
55317;BME280;41178;48.956;8.130;2024-01-27T23:31:56;101301.38;;;3.77;47.39
55317;BME280;41178;48.956;8.130;2024-01-27T23:36:58;101107.16;;;4.52;46.44
55317;BME280;41178;48.956;8.130;2024-01-27T23:41:59;101335.47;;;3.69;47.13
55317;BME280;41178;48.956;8.130;2024-01-27T23:47:01;101132.63;;;4.79;45.73
55317;BME280;41178;48.956;8.130;2024-01-27T23:52:04;101227.66;;;4.35;45.84
55317;BME280;41178;48.956;8.130;2024-01-27T23:57:11;101232.75;;;4.38;45.98
